Time;durP1;ratioP1;P1;durP2;ratioP2;P2;SDS_P1;SDS_P2;PMS_P1;PMS_P2;Temp;Humidity;BMP_temperature;BMP_pressure;BME280_temperature;BME280_humidity;BME280_pressure;Samples;Min_cycle;Max_cycle;Signal;HPM_P1;HPM_P2
2022/03/05 00:02:23;;;;;;;;;66.67;48.33;;;;;8.93;100.00;101526.78;5099927;27;44822;-85
2022/03/05 00:04:49;;;;;;;;;71.33;56.33;;;;;8.83;100.00;101528.16;5101120;27;45266;-84
2022/03/05 00:07:15;;;;;;;;;69.67;56.00;;;;;8.85;100.00;101534.22;5101151;27;44935;-85
2022/03/05 00:09:41;;;;;;;;;68.00;50.67;;;;;8.83;100.00;101525.50;5099387;27;45508;-85
2022/03/05 00:12:07;;;;;;;;;69.67;49.33;;;;;8.87;100.00;101522.63;5098159;27;44822;-84
2022/03/05 00:14:32;;;;;;;;;64.00;50.33;;;;;8.90;100.00;101529.59;5097915;27;45377;-85
2022/03/05 00:16:57;;;;;;;;;56.00;44.33;;;;;8.90;100.00;101524.28;5096240;27;44865;-85
2022/03/05 00:19:23;;;;;;;;;63.33;48.67;;;;;8.88;100.00;101524.34;5097504;27;45226;-85
2022/03/05 00:21:48;;;;;;;;;61.67;46.67;;;;;8.92;100.00;101527.72;5096306;27;45348;-85
2022/03/05 00:24:13;;;;;;;;;63.00;49.33;;;;;8.90;100.00;101527.81;5097780;27;44978;-85
2022/03/05 00:26:39;;;;;;;;;63.67;49.00;;;;;8.87;100.00;101529.72;5097762;27;45350;-85
2022/03/05 00:29:04;;;;;;;;;58.00;45.67;;;;;8.93;100.00;101524.13;5098687;27;45412;-85
2022/03/05 00:31:30;;;;;;;;;59.67;46.00;;;;;9.01;100.00;101522.84;5101341;27;44733;-85
2022/03/05 00:33:55;;;;;;;;;56.67;44.00;;;;;9.05;100.00;101525.34;5102837;27;45285;-85
2022/03/05 00:36:21;;;;;;;;;58.33;46.33;;;;;9.07;100.00;101519.03;5098460;27;45291;-86
2022/03/05 00:38:46;;;;;;;;;59.33;46.67;;;;;9.03;100.00;101520.09;5097512;27;45366;-85
2022/03/05 00:41:11;;;;;;;;;58.67;46.67;;;;;9.01;100.00;101516.69;5098081;27;44710;-85
2022/03/05 00:43:37;;;;;;;;;59.67;46.67;;;;;9.01;100.00;101514.88;5099496;27;45205;-85
2022/03/05 00:46:02;;;;;;;;;58.00;46.00;;;;;9.05;100.00;101515.59;5098123;27;44920;-85
2022/03/05 00:48:28;;;;;;;;;63.67;47.00;;;;;9.05;100.00;101510.31;5098687;27;45209;-83
2022/03/05 00:50:53;;;;;;;;;56.67;42.33;;;;;9.06;100.00;101513.81;5097147;27;45256;-84
2022/03/05 00:53:21;;;;;;;;;55.00;42.33;;;;;9.09;100.00;101506.59;5096644;27;45309;-85
2022/03/05 00:55:48;;;;;;;;;60.67;43.67;;;;;9.06;100.00;101504.06;5098564;27;44722;-85
2022/03/05 00:58:16;;;;;;;;;56.33;45.00;;;;;9.06;100.00;101505.88;5101489;27;45385;-84
2022/03/05 01:00:42;;;;;;;;;62.50;45.00;;;;;9.08;100.00;101509.28;5095030;27;44770;-84
2022/03/05 01:03:07;;;;;;;;;56.33;45.00;;;;;9.10;100.00;101507.44;5105645;27;45158;-84
2022/03/05 01:05:33;;;;;;;;;57.67;44.33;;;;;9.11;100.00;101506.50;5098204;27;45583;-84
2022/03/05 01:07:58;;;;;;;;;51.00;42.00;;;;;9.11;100.00;101501.19;5098993;27;45774;-84
2022/03/05 01:10:24;;;;;;;;;59.33;46.00;;;;;9.11;100.00;101498.53;5097124;27;44790;-84
2022/03/05 01:12:49;;;;;;;;;58.33;46.67;;;;;9.12;100.00;101502.91;5099502;27;45322;-84
2022/03/05 01:15:14;;;;;;;;;60.00;47.00;;;;;9.10;100.00;101502.13;5098964;27;45372;-84
2022/03/05 01:17:40;;;;;;;;;63.00;49.00;;;;;9.07;100.00;101505.78;5098203;27;45195;-84
2022/03/05 01:20:06;;;;;;;;;54.33;44.33;;;;;9.09;100.00;101497.75;5096687;27;45247;-84
2022/03/05 01:22:31;;;;;;;;;55.33;42.67;;;;;9.09;100.00;101503.03;5097642;27;45330;-83
2022/03/05 01:24:57;;;;;;;;;56.67;43.33;;;;;9.02;100.00;101491.88;5096915;27;44967;-83
2022/03/05 01:27:22;;;;;;;;;57.33;46.00;;;;;9.02;100.00;101495.41;5095966;27;46613;-83
2022/03/05 01:29:48;;;;;;;;;66.33;51.00;;;;;8.98;100.00;101490.31;5099772;27;45531;-85
2022/03/05 01:32:15;;;;;;;;;53.33;43.00;;;;;8.98;100.00;101485.88;5100164;27;45452;-84
2022/03/05 01:34:40;;;;;;;;;53.67;42.33;;;;;8.94;100.00;101489.59;5095632;27;45398;-85
2022/03/05 01:37:06;;;;;;;;;56.33;42.67;;;;;8.93;100.00;101487.88;5097363;27;45400;-85
2022/03/05 01:39:31;;;;;;;;;58.67;46.00;;;;;8.90;100.00;101489.84;5097422;27;44780;-83
2022/03/05 01:41:57;;;;;;;;;57.00;43.33;;;;;8.90;100.00;101503.94;5097910;27;45274;-84
2022/03/05 01:44:23;;;;;;;;;55.67;44.67;;;;;8.87;100.00;101496.13;5098487;27;44931;-84
2022/03/05 01:46:49;;;;;;;;;50.00;42.00;;;;;8.85;100.00;101505.06;5099775;27;45385;-84
2022/03/05 01:49:15;;;;;;;;;58.00;46.00;;;;;8.80;100.00;101492.06;5095206;27;45241;-84
2022/03/05 01:51:42;;;;;;;;;54.67;45.33;;;;;8.79;100.00;101500.06;5094848;27;44830;-84
2022/03/05 01:54:08;;;;;;;;;53.33;43.67;;;;;8.81;100.00;101500.88;5113124;27;45006;-84
2022/03/05 01:56:35;;;;;;;;;53.67;42.00;;;;;8.82;100.00;101500.78;5119982;27;45178;-84
2022/03/05 01:59:01;;;;;;;;;48.00;41.33;;;;;8.83;100.00;101501.66;5120163;27;45509;-84
2022/03/05 02:01:27;;;;;;;;;56.33;44.33;;;;;8.83;100.00;101502.50;5125413;27;45364;-84
2022/03/05 02:03:55;;;;;;;;;56.00;43.33;;;;;8.81;100.00;101504.38;5122368;27;44835;-84
2022/03/05 02:06:21;;;;;;;;;55.33;42.67;;;;;8.81;100.00;101500.88;5118243;27;45435;-84
2022/03/05 02:08:48;;;;;;;;;49.00;41.00;;;;;8.78;100.00;101498.38;5116062;27;45249;-84
2022/03/05 02:11:13;;;;;;;;;50.33;42.33;;;;;8.73;100.00;101499.44;5117152;27;44794;-84
2022/03/05 02:13:39;;;;;;;;;52.67;42.00;;;;;8.72;100.00;101504.81;5116794;27;45177;-83
2022/03/05 02:16:05;;;;;;;;;59.00;45.00;;;;;8.69;100.00;101503.16;5115502;27;46832;-85
2022/03/05 02:18:30;;;;;;;;;47.00;40.67;;;;;8.67;100.00;101499.72;5120467;27;45418;-84
2022/03/05 02:20:56;;;;;;;;;55.67;45.67;;;;;8.65;100.00;101500.72;5120004;27;45278;-84
2022/03/05 02:23:22;;;;;;;;;55.00;43.67;;;;;8.64;100.00;101513.09;5120293;27;45296;-85
2022/03/05 02:25:53;;;;;;;;;48.67;36.00;;;;;8.64;100.00;101506.94;5120342;27;45270;-84
2022/03/05 02:28:20;;;;;;;;;56.67;42.33;;;;;8.66;100.00;101502.47;5118853;27;45514;-83
2022/03/05 02:30:45;;;;;;;;;59.00;45.67;;;;;8.69;100.00;101497.84;5121584;27;45491;-84
2022/03/05 02:33:11;;;;;;;;;52.00;41.67;;;;;8.67;100.00;101505.03;5125944;27;44976;-84
2022/03/05 02:35:36;;;;;;;;;53.33;41.00;;;;;8.65;100.00;101498.94;5123492;27;46804;-84
2022/03/05 02:38:02;;;;;;;;;56.00;40.33;;;;;8.66;100.00;101491.88;5122128;27;45332;-85
2022/03/05 02:40:27;;;;;;;;;53.50;43.00;;;;;8.64;100.00;101496.34;5126736;27;45229;-83
2022/03/05 02:42:52;;;;;;;;;53.67;44.00;;;;;8.65;100.00;101490.13;5121785;27;44980;-84
2022/03/05 02:45:18;;;;;;;;;56.00;44.33;;;;;8.63;100.00;101494.66;5121261;27;45662;-83
2022/03/05 02:47:43;;;;;;;;;52.00;41.67;;;;;8.65;100.00;101490.13;5121634;27;44845;-84
2022/03/05 02:50:09;;;;;;;;;51.33;43.00;;;;;8.63;100.00;101489.34;5122824;27;45418;-84
2022/03/05 02:52:38;;;;;;;;;51.00;42.00;;;;;8.60;100.00;101487.69;5117822;27;44881;-83
2022/03/05 02:55:04;;;;;;;;;47.00;35.33;;;;;8.60;100.00;101490.34;5101785;27;45525;-83
2022/03/05 02:57:29;;;;;;;;;53.00;43.00;;;;;8.63;100.00;101484.06;5103766;27;45284;-84
2022/03/05 02:59:55;;;;;;;;;48.67;40.33;;;;;8.63;100.00;101486.69;5103521;27;45305;-83
2022/03/05 03:02:20;;;;;;;;;49.67;38.00;;;;;8.61;100.00;101483.28;5101811;27;44789;-83
2022/03/05 03:04:46;;;;;;;;;52.00;39.67;;;;;8.63;100.00;101484.06;5104724;27;45460;-82
2022/03/05 03:07:11;;;;;;;;;48.33;38.00;;;;;8.60;100.00;101484.19;5106480;27;44715;-84
2022/03/05 03:09:37;;;;;;;;;50.67;35.00;;;;;8.57;100.00;101479.91;5102557;27;45011;-83
2022/03/05 03:12:02;;;;;;;;;48.67;40.67;;;;;8.55;100.00;101484.41;5103125;27;44812;-84
2022/03/05 03:14:28;;;;;;;;;56.33;42.00;;;;;8.50;100.00;101483.75;5102123;27;45620;-82
2022/03/05 03:16:53;;;;;;;;;48.67;40.67;;;;;8.50;100.00;101481.97;5102774;27;44772;-82
2022/03/05 03:19:18;;;;;;;;;48.00;39.00;;;;;8.47;100.00;101479.47;5100839;27;44796;-84
2022/03/05 03:21:44;;;;;;;;;52.33;39.00;;;;;8.45;100.00;101481.31;5103452;27;44786;-83
2022/03/05 03:24:09;;;;;;;;;52.67;39.00;;;;;8.44;100.00;101476.97;5106333;27;45027;-83
2022/03/05 03:26:35;;;;;;;;;51.33;40.00;;;;;8.43;100.00;101480.53;5102309;27;44665;-84
2022/03/05 03:29:00;;;;;;;;;52.67;41.00;;;;;8.48;100.00;101475.03;5101731;27;45308;-83
2022/03/05 03:31:26;;;;;;;;;51.67;39.33;;;;;8.50;100.00;101478.47;5101014;27;44740;-84
2022/03/05 03:33:52;;;;;;;;;52.00;40.67;;;;;8.50;100.00;101479.31;5101825;27;45447;-83
2022/03/05 03:36:18;;;;;;;;;46.33;39.00;;;;;8.51;100.00;101472.25;5104288;27;44908;-83
2022/03/05 03:38:43;;;;;;;;;49.67;37.67;;;;;8.50;100.00;101474.00;5108776;27;45342;-83
2022/03/05 03:41:09;;;;;;;;;44.33;36.67;;;;;8.52;100.00;101473.13;5108177;27;45034;-85
2022/03/05 03:43:34;;;;;;;;;50.33;41.33;;;;;8.50;100.00;101468.72;5102703;27;44903;-84
2022/03/05 03:46:00;;;;;;;;;50.33;38.33;;;;;8.50;100.00;101475.81;5099534;27;45424;-84
2022/03/05 03:48:25;;;;;;;;;46.67;39.67;;;;;8.49;100.00;101474.94;5096992;27;45469;-84
2022/03/05 03:50:50;;;;;;;;;51.67;40.00;;;;;8.49;100.00;101474.09;5098730;27;45159;-83
2022/03/05 03:53:16;;;;;;;;;49.00;41.33;;;;;8.48;100.00;101478.53;5107562;27;45349;-82
2022/03/05 03:55:42;;;;;;;;;50.67;41.67;;;;;8.45;100.00;101477.81;5118734;27;44786;-84
2022/03/05 03:58:07;;;;;;;;;51.00;39.33;;;;;8.43;100.00;101490.28;5118839;27;45418;-83
2022/03/05 04:00:33;;;;;;;;;49.00;38.33;;;;;8.45;100.00;101485.75;5118970;27;44891;-84
2022/03/05 04:02:59;;;;;;;;;53.67;41.67;;;;;8.44;100.00;101479.59;5118357;27;45255;-82
2022/03/05 04:05:24;;;;;;;;;48.67;38.33;;;;;8.46;100.00;101483.06;5118299;27;44779;-83
2022/03/05 04:10:34;;;;;;;;;54.00;44.67;;;;;8.49;100.00;101487.34;5120225;27;45475;-84
2022/03/05 04:12:59;;;;;;;;;47.00;38.00;;;;;8.48;100.00;101488.28;5123157;27;45080;-84
2022/03/05 04:15:25;;;;;;;;;55.67;43.67;;;;;8.45;100.00;101483.97;5125386;27;45406;-83
2022/03/05 04:17:50;;;;;;;;;49.67;40.33;;;;;8.41;100.00;101482.41;5119454;27;44874;-83
2022/03/05 04:20:16;;;;;;;;;50.67;40.00;;;;;8.42;100.00;101480.63;5118744;27;45618;-83
2022/03/05 04:22:41;;;;;;;;;52.33;41.67;;;;;8.43;100.00;101485.84;5116582;27;45428;-83
2022/03/05 04:25:07;;;;;;;;;47.33;39.00;;;;;8.46;100.00;101485.72;5117993;27;45364;-84
2022/03/05 04:27:33;;;;;;;;;55.67;41.67;;;;;8.46;100.00;101483.06;5118910;27;45262;-83
2022/03/05 04:29:59;;;;;;;;;54.67;42.67;;;;;8.43;100.00;101483.19;5117274;27;45297;-83
2022/03/05 04:32:25;;;;;;;;;50.67;41.00;;;;;8.44;100.00;101478.75;5118787;27;45350;-83
2022/03/05 04:34:50;;;;;;;;;50.33;42.33;;;;;8.44;100.00;101487.56;5119418;27;45274;-82
2022/03/05 04:37:16;;;;;;;;;53.00;41.00;;;;;8.45;100.00;101483.09;5123065;27;45437;-84
2022/03/05 04:39:41;;;;;;;;;52.67;39.33;;;;;8.43;100.00;101485.84;5120442;27;45161;-83
2022/03/05 04:42:07;;;;;;;;;52.67;39.00;;;;;8.44;100.00;101487.56;5118605;27;45499;-83
2022/03/05 04:44:33;;;;;;;;;57.67;44.67;;;;;8.44;100.00;101486.69;5119091;27;44700;-83
2022/03/05 04:46:58;;;;;;;;;56.00;41.67;;;;;8.44;100.00;101492.00;5120160;27;44839;-83
2022/03/05 04:49:24;;;;;;;;;44.67;39.33;;;;;8.42;100.00;101491.22;5122482;27;45208;-84
2022/03/05 04:51:49;;;;;;;;;56.67;42.33;;;;;8.43;100.00;101487.63;5118311;27;45579;-84
2022/03/05 04:54:15;;;;;;;;;49.00;41.33;;;;;8.43;100.00;101496.44;5097492;27;45396;-84
2022/03/05 04:56:40;;;;;;;;;53.00;43.00;;;;;8.42;100.00;101501.81;5097346;27;45292;-85
2022/03/05 04:59:05;;;;;;;;;57.67;42.33;;;;;8.38;100.00;101495.78;5096852;27;45634;-84
2022/03/05 05:01:31;;;;;;;;;54.67;43.67;;;;;8.34;100.00;101504.75;5096790;27;45472;-84
2022/03/05 05:03:57;;;;;;;;;56.67;44.33;;;;;8.32;100.00;101505.75;5097196;27;45476;-85
2022/03/05 05:06:22;;;;;;;;;56.67;43.33;;;;;8.28;100.00;101499.75;5097259;27;45384;-84
2022/03/05 05:08:48;;;;;;;;;58.00;46.00;;;;;8.29;100.00;101506.75;5097533;27;45364;-84
2022/03/05 05:11:13;;;;;;;;;54.67;43.67;;;;;8.26;100.00;101501.59;5096286;27;45438;-84
2022/03/05 05:13:39;;;;;;;;;58.33;42.67;;;;;8.20;100.00;101505.38;5096724;27;44730;-84
2022/03/05 05:16:05;;;;;;;;;51.00;41.33;;;;;8.19;100.00;101503.66;5097135;27;44914;-85
2022/03/05 05:18:32;;;;;;;;;56.33;44.00;;;;;8.19;100.00;101505.44;5097077;27;44783;-82
2022/03/05 05:20:58;;;;;;;;;54.33;44.33;;;;;8.18;100.00;101514.31;5098476;27;45440;-84
2022/03/05 05:23:23;;;;;;;;;56.33;44.67;;;;;8.16;100.00;101511.72;5101038;27;45165;-84
2022/03/05 05:25:49;;;;;;;;;54.00;42.67;;;;;8.17;100.00;101509.94;5100716;27;44884;-84
2022/03/05 05:28:14;;;;;;;;;50.33;40.67;;;;;8.19;100.00;101521.31;5097544;27;44713;-84
2022/03/05 05:30:40;;;;;;;;;52.67;43.33;;;;;8.19;100.00;101510.75;5098196;27;45339;-83
2022/03/05 05:33:05;;;;;;;;;62.00;45.67;;;;;8.20;100.00;101517.75;5099179;27;45166;-85
2022/03/05 05:35:31;;;;;;;;;50.00;39.00;;;;;8.19;100.00;101521.31;5101934;27;45341;-85
2022/03/05 05:37:56;;;;;;;;;54.67;43.33;;;;;8.17;100.00;101525.81;5101183;27;45401;-85
2022/03/05 05:40:22;;;;;;;;;63.67;47.67;;;;;8.17;100.00;101525.81;5098358;27;45486;-84
2022/03/05 05:42:47;;;;;;;;;56.67;44.33;;;;;8.16;100.00;101529.38;5097961;27;45393;-84
2022/03/05 05:45:13;;;;;;;;;54.67;42.00;;;;;8.14;100.00;101524.19;5108925;27;44778;-82
2022/03/05 05:47:38;;;;;;;;;51.00;43.33;;;;;8.14;100.00;101529.47;5103704;27;44743;-83
2022/03/05 05:50:05;;;;;;;;;58.00;46.00;;;;;8.15;100.00;101530.31;5109675;27;44995;-85
2022/03/05 05:52:30;;;;;;;;;55.67;43.00;;;;;8.14;100.00;101526.81;5097512;27;44729;-85
2022/03/05 05:54:56;;;;;;;;;55.33;43.00;;;;;8.14;100.00;101525.97;5104335;27;45327;-84
2022/03/05 05:57:22;;;;;;;;;51.00;39.00;;;;;8.14;100.00;101531.25;5102434;27;44823;-83
2022/03/05 05:59:47;;;;;;;;;62.67;46.00;;;;;8.13;100.00;101532.19;5106143;27;44977;-83
2022/03/05 06:02:12;;;;;;;;;58.00;44.00;;;;;8.11;100.00;101534.88;5105460;27;44684;-83
2022/03/05 06:04:38;;;;;;;;;57.67;45.67;;;;;8.10;100.00;101530.53;5103882;27;45025;-84
2022/03/05 06:07:03;;;;;;;;;59.67;46.00;;;;;8.12;100.00;101533.97;5103559;27;44698;-84
2022/03/05 06:09:28;;;;;;;;;59.67;45.33;;;;;8.11;100.00;101534.03;5100020;27;45864;-84
2022/03/05 06:11:54;;;;;;;;;59.00;47.33;;;;;8.12;100.00;101539.28;5100159;27;45292;-86
2022/03/05 06:14:19;;;;;;;;;56.33;45.00;;;;;8.12;100.00;101536.63;5099944;27;44796;-84
2022/03/05 06:16:45;;;;;;;;;61.00;44.67;;;;;8.13;100.00;101532.19;5099783;27;45465;-84
2022/03/05 06:19:10;;;;;;;;;54.00;43.33;;;;;8.14;100.00;101532.13;5099886;27;45316;-84
2022/03/05 06:21:36;;;;;;;;;59.33;44.33;;;;;8.12;100.00;101535.75;5098406;27;45430;-84
2022/03/05 06:24:01;;;;;;;;;54.67;42.00;;;;;8.12;100.00;101533.97;5099813;27;44938;-84
2022/03/05 06:26:31;;;;;;;;;61.67;44.67;;;;;8.14;100.00;101541.84;5099852;27;45378;-83
2022/03/05 06:28:57;;;;;;;;;55.33;46.00;;;;;8.17;100.00;101544.34;5100170;27;45701;-84
2022/03/05 06:31:23;;;;;;;;;57.67;44.33;;;;;8.19;100.00;101540.72;5100903;27;45420;-85
2022/03/05 06:33:49;;;;;;;;;59.33;45.33;;;;;8.19;100.00;101539.84;5104070;27;45201;-84
2022/03/05 06:36:14;;;;;;;;;60.67;47.00;;;;;8.20;100.00;101530.97;5108253;27;44908;-84
2022/03/05 06:38:39;;;;;;;;;55.50;45.50;;;;;8.23;100.00;101544.09;5099138;27;45527;-84
2022/03/05 06:41:05;;;;;;;;;54.00;44.00;;;;;8.26;100.00;101543.94;5099637;27;45472;-82
2022/03/05 06:43:31;;;;;;;;;55.67;44.33;;;;;8.29;100.00;101543.81;5098218;27;45483;-84
2022/03/05 06:45:56;;;;;;;;;61.33;47.33;;;;;8.33;100.00;101545.41;5099339;27;44863;-84
2022/03/05 06:48:21;;;;;;;;;57.33;43.00;;;;;8.36;100.00;101536.44;5099466;27;45519;-84
2022/03/05 06:50:47;;;;;;;;;60.33;46.00;;;;;8.40;100.00;101541.56;5100728;27;44778;-86
2022/03/05 06:53:12;;;;;;;;;61.67;47.67;;;;;8.45;100.00;101546.66;5089730;27;45453;-87
2022/03/05 06:55:38;;;;;;;;;59.67;47.33;;;;;8.53;100.00;101547.19;5096876;27;45687;-88
2022/03/05 06:58:03;;;;;;;;;60.33;46.00;;;;;8.57;100.00;101547.91;5078778;27;45186;-84
2022/03/05 07:00:29;;;;;;;;;59.33;46.00;;;;;8.63;100.00;101548.47;5078564;27;44829;-83
2022/03/05 07:02:54;;;;;;;;;54.33;46.00;;;;;8.72;100.00;101550.69;5078896;27;44742;-85
2022/03/05 07:05:20;;;;;;;;;57.33;44.33;;;;;8.84;100.00;101546.59;5081492;27;45396;-84
2022/03/05 07:07:45;;;;;;;;;50.33;40.33;;;;;8.94;100.00;101552.34;5080285;27;45252;-85
2022/03/05 07:10:11;;;;;;;;;57.67;47.00;;;;;9.04;100.00;101550.13;5082802;27;45332;-84
2022/03/05 07:12:37;;;;;;;;;57.33;44.67;;;;;9.06;100.00;101549.13;5085386;27;45324;-83
2022/03/05 07:15:02;;;;;;;;;52.00;43.33;;;;;9.12;100.00;101546.16;5079235;27;44741;-85
2022/03/05 07:17:28;;;;;;;;;53.00;43.33;;;;;9.17;100.00;101546.81;5078309;27;45032;-85
2022/03/05 07:19:56;;;;;;;;;55.00;43.33;;;;;9.20;100.00;101545.81;5079373;27;44727;-84
2022/03/05 07:22:22;;;;;;;;;57.00;43.67;;;;;9.24;100.00;101550.03;5079760;27;45356;-84
2022/03/05 07:24:48;;;;;;;;;51.33;43.33;;;;;9.16;100.00;101555.69;5096415;27;44888;-83
2022/03/05 07:27:14;;;;;;;;;55.00;44.00;;;;;9.02;100.00;101553.69;5080801;27;44938;-84
2022/03/05 07:29:39;;;;;;;;;55.33;43.33;;;;;9.02;100.00;101552.84;5078735;27;45378;-82
2022/03/05 07:32:05;;;;;;;;;52.00;42.00;;;;;9.00;100.00;101554.72;5082477;27;45437;-83
2022/03/05 07:34:31;;;;;;;;;52.33;43.67;;;;;9.04;100.00;101550.13;5082849;27;44978;-84
2022/03/05 07:36:57;;;;;;;;;63.33;47.00;;;;;9.09;100.00;101558.72;5085695;27;44997;-85
2022/03/05 07:39:23;;;;;;;;;52.67;41.67;;;;;9.09;100.00;101559.59;5089090;27;44761;-83
2022/03/05 07:41:49;;;;;;;;;59.00;46.67;;;;;9.13;100.00;101560.28;5091484;27;44677;-83
2022/03/05 07:44:15;;;;;;;;;59.33;46.00;;;;;9.13;100.00;101563.78;5091423;27;44834;-84
2022/03/05 07:46:40;;;;;;;;;59.00;45.33;;;;;9.13;100.00;101566.44;5085674;27;45362;-84
2022/03/05 07:49:05;;;;;;;;;51.33;43.00;;;;;9.15;100.00;101564.59;5089456;27;44769;-84
2022/03/05 07:51:32;;;;;;;;;53.33;42.33;;;;;9.16;100.00;101571.59;5087583;28;45285;-84
2022/03/05 07:53:58;;;;;;;;;54.33;43.00;;;;;9.21;100.00;101574.03;5094977;27;45280;-84
2022/03/05 07:56:23;;;;;;;;;56.33;44.00;;;;;9.25;100.00;101572.97;5099675;27;45384;-86
2022/03/05 07:58:49;;;;;;;;;57.00;44.33;;;;;9.30;100.00;101576.25;5102271;27;45403;-84
2022/03/05 08:01:14;;;;;;;;;56.33;45.67;;;;;9.39;100.00;101577.59;5102942;27;45397;-84
2022/03/05 08:03:39;;;;;;;;;52.67;42.00;;;;;9.43;100.00;101574.72;5102744;27;45433;-84
2022/03/05 08:06:05;;;;;;;;;56.33;44.00;;;;;9.48;100.00;101571.84;5103140;27;45113;-84
2022/03/05 08:08:31;;;;;;;;;52.00;42.67;;;;;9.51;100.00;101575.19;5111996;27;44744;-84
2022/03/05 08:10:56;;;;;;;;;56.33;43.67;;;;;9.58;100.00;101573.13;5097068;27;45360;-84
2022/03/05 08:13:22;;;;;;;;;50.00;43.00;;;;;9.64;100.00;101572.81;5083827;27;45253;-86
2022/03/05 08:15:48;;;;;;;;;53.00;42.00;;;;;9.71;100.00;101578.66;5104324;27;45008;-85
2022/03/05 08:18:14;;;;;;;;;55.00;43.00;;;;;9.76;100.00;101577.50;5097123;27;45250;-84
2022/03/05 08:20:39;;;;;;;;;58.33;47.00;;;;;9.84;100.00;101584.22;5099522;27;45231;-86
2022/03/05 08:23:05;;;;;;;;;52.67;41.00;;;;;9.82;100.00;101579.00;5107144;27;44811;-86
2022/03/05 08:25:30;;;;;;;;;58.67;45.00;;;;;9.89;100.00;101584.84;5110061;27;45206;-85
2022/03/05 08:27:56;;;;;;;;;56.67;45.67;;;;;9.95;100.00;101585.38;5107614;27;45266;-86
2022/03/05 08:30:21;;;;;;;;;55.67;42.00;;;;;10.00;100.00;101575.38;5101122;27;45225;-85
2022/03/05 08:32:47;;;;;;;;;60.00;46.33;;;;;10.10;100.00;101580.22;5088211;27;44826;-85
2022/03/05 08:35:14;;;;;;;;;58.67;46.00;;;;;10.08;100.00;101582.97;5098022;27;45109;-86
2022/03/05 08:37:41;;;;;;;;;54.67;43.00;;;;;10.10;100.00;101574.94;5086907;27;45595;-83
2022/03/05 08:40:09;;;;;;;;;56.00;45.00;;;;;10.18;100.00;101583.38;5107507;27;45484;-84
2022/03/05 08:42:35;;;;;;;;;56.67;42.67;;;;;10.31;100.00;101578.31;5107550;27;45527;-85
2022/03/05 08:45:02;;;;;;;;;55.00;45.00;;;;;10.42;100.00;101574.16;5088904;27;46686;-86
2022/03/05 08:47:28;;;;;;;;;52.00;41.33;;;;;10.52;100.00;101572.72;5080931;27;44869;-85
2022/03/05 08:49:53;;;;;;;;;57.67;42.00;;;;;10.58;100.00;101579.50;5079257;27;45383;-85
2022/03/05 08:52:19;;;;;;;;;59.33;47.67;;;;;10.69;100.00;101570.97;5097821;27;44821;-87
2022/03/05 08:54:44;;;;;;;;;55.33;45.00;;;;;10.82;100.00;101583.47;5083272;27;47266;-86
2022/03/05 08:57:11;;;;;;;;;58.33;46.33;;;;;10.94;100.00;101575.81;5096453;27;44807;-86
2022/03/05 08:59:39;;;;;;;;;60.33;47.00;;;;;11.03;100.00;101583.28;5106510;27;45295;-85
2022/03/05 09:02:06;;;;;;;;;55.00;43.33;;;;;11.17;100.00;101575.38;5090336;27;45174;-85
2022/03/05 09:04:32;;;;;;;;;51.67;43.00;;;;;11.30;100.00;101575.53;5106621;27;46188;-86
2022/03/05 09:06:57;;;;;;;;;57.67;46.00;;;;;11.41;100.00;101572.25;5101374;27;45299;-86
2022/03/05 09:09:23;;;;;;;;;53.33;41.33;;;;;11.49;100.00;101573.53;5084985;27;45290;-84
2022/03/05 09:11:48;;;;;;;;;66.67;47.00;;;;;11.59;100.00;101571.22;5076781;27;44865;-84
2022/03/05 09:14:13;;;;;;;;;54.00;44.00;;;;;11.66;100.00;101571.72;5076737;27;45444;-84
2022/03/05 09:16:40;;;;;;;;;56.67;45.33;;;;;11.78;100.00;101574.50;5076970;27;45414;-85
2022/03/05 09:19:08;;;;;;;;;56.00;43.67;;;;;11.93;100.00;101579.91;5075854;28;45371;-87
2022/03/05 09:21:34;;;;;;;;;56.33;45.33;;;;;12.05;100.00;101576.53;5077392;27;44847;-85
2022/03/05 09:24:00;;;;;;;;;57.00;45.00;;;;;12.21;100.00;101576.47;5078010;27;45489;-85
2022/03/05 09:26:26;;;;;;;;;53.33;43.67;;;;;12.32;100.00;101577.53;5079211;27;45399;-86
2022/03/05 09:28:51;;;;;;;;;56.67;44.00;;;;;12.45;100.00;101571.47;5081919;27;45437;-86
2022/03/05 09:31:17;;;;;;;;;54.00;43.33;;;;;12.60;100.00;101576.69;5082065;27;45402;-86
2022/03/05 09:33:42;;;;;;;;;56.00;44.00;;;;;12.66;100.00;101575.44;5080673;27;45191;-86
2022/03/05 09:36:09;;;;;;;;;56.67;44.00;;;;;12.64;100.00;101569.38;5079328;27;44839;-86
2022/03/05 09:38:34;;;;;;;;;56.00;43.33;;;;;12.73;100.00;101570.63;5096773;27;45349;-86
2022/03/05 09:41:02;;;;;;;;;52.00;42.00;;;;;12.81;100.00;101566.53;5083125;27;45303;-87
2022/03/05 09:43:29;;;;;;;;;57.67;46.00;;;;;12.85;100.00;101573.34;5086576;27;45202;-91
2022/03/05 09:45:56;;;;;;;;;54.67;44.33;;;;;12.82;100.00;101578.03;5083572;27;45297;-85
2022/03/05 09:48:23;;;;;;;;;54.67;43.33;;;;;12.85;100.00;101570.69;5082727;27;44754;-86
2022/03/05 09:50:48;;;;;;;;;57.67;46.00;;;;;12.88;100.00;101572.31;5082079;27;45584;-86
2022/03/05 09:53:14;;;;;;;;;53.33;43.33;;;;;12.87;100.00;101570.59;5080436;27;45600;-84
2022/03/05 09:55:39;;;;;;;;;53.67;44.00;;;;;12.80;100.00;101574.59;5080398;27;45362;-86
2022/03/05 09:58:05;;;;;;;;;57.00;46.00;;;;;12.77;100.00;101570.31;5080147;28;45437;-86
2022/03/05 10:00:30;;;;;;;;;53.00;42.33;;;;;12.70;100.00;101568.97;5087230;27;44845;-86
2022/03/05 10:02:56;;;;;;;;;52.00;42.67;;;;;12.66;100.00;101567.44;5106063;27;45418;-85
2022/03/05 10:05:29;;;;;;;;;56.33;45.33;;;;;12.67;100.00;101568.31;5106987;27;44772;-86
2022/03/05 10:08:02;;;;;;;;;62.00;48.00;;;;;12.51;100.00;101568.41;5106807;27;45369;-85
2022/03/05 10:10:29;;;;;;;;;57.67;44.67;;;;;12.20;100.00;101559.63;5107203;27;45279;-86
2022/03/05 10:12:54;;;;;;;;;56.33;44.33;;;;;12.14;100.00;101562.69;5105437;27;45372;-89
2022/03/05 10:15:21;;;;;;;;;57.33;45.00;;;;;12.19;100.00;101562.41;5103652;27;45517;-89
2022/03/05 10:17:59;;;;;;;;;58.00;47.00;;;;;12.22;100.00;101557.72;5102878;27;44768;-87
2022/03/05 10:20:31;;;;;;;;;58.33;46.67;;;;;12.40;100.00;101563.75;5108020;27;45175;-85
2022/03/05 10:23:05;;;;;;;;;62.00;49.67;;;;;12.36;100.00;101567.53;5104660;27;45377;-86
2022/03/05 10:25:34;;;;;;;;;55.00;43.67;;;;;12.27;100.00;101563.63;5099153;27;44855;-86
2022/03/05 10:28:06;;;;;;;;;58.00;47.00;;;;;11.88;100.00;101564.22;5100109;27;45193;-88
2022/03/05 10:30:35;;;;;;;;;51.67;43.00;;;;;11.67;100.00;101562.78;5101625;27;44983;-88
2022/03/05 10:33:01;;;;;;;;;59.00;46.00;;;;;11.59;100.00;101564.06;5104542;27;45404;-86
2022/03/05 10:35:27;;;;;;;;;58.00;46.00;;;;;11.74;100.00;101562.31;5089608;27;45328;-85
2022/03/05 10:37:53;;;;;;;;;54.67;43.00;;;;;11.81;100.00;101563.69;5082375;27;45437;-87
2022/03/05 10:40:33;;;;;;;;;50.67;41.00;;;;;11.93;100.00;101566.59;5100866;27;44752;-86
2022/03/05 10:43:05;;;;;;;;;53.67;44.00;;;;;11.95;100.00;101570.91;5098473;27;45309;-87
2022/03/05 10:45:49;;;;;;;;;55.67;44.33;;;;;11.88;100.00;101561.56;5078982;27;45659;-87
2022/03/05 10:48:29;;;;;;;;;52.00;43.00;;;;;11.69;100.00;101560.88;5099990;27;44646;-88
2022/03/05 10:51:01;;;;;;;;;53.33;41.67;;;;;11.83;100.00;101560.97;5100182;27;45382;-87
2022/03/05 10:53:47;;;;;;;;;52.67;44.00;;;;;12.08;100.00;101561.22;5099521;27;45519;-87
2022/03/05 10:56:29;;;;;;;;;49.00;39.33;;;;;12.27;100.00;101560.09;5096257;27;44792;-87
2022/03/05 10:59:10;;;;;;;;;58.67;44.00;;;;;12.54;100.00;101553.09;5086377;27;45269;-87
2022/03/05 11:01:42;;;;;;;;;52.33;42.33;;;;;12.81;100.00;101555.84;5084519;27;44862;-86
2022/03/05 11:04:09;;;;;;;;;53.67;44.33;;;;;12.72;100.00;101556.44;5079473;27;45520;-84
2022/03/05 11:06:37;;;;;;;;;54.67;43.00;;;;;12.58;100.00;101557.28;5077658;28;45268;-85